Naniwa Maru No.21 — JG5648 — position and weather

sailwx.info

Track history (hours):
 
Tides and Currents Weather Stations Pressure Air Temp Water Temp Dewpoint Dewpoint Depression Visibility Wind Speed Wind Dir Waves Ship Positions

Naniwa Maru No.21

Last reported at 2015-Apr-27 04:27 UTC. Time now 2015-Apr-27 20:46 UTC.
Position N 33°55' E 130°23'.

Length 71 m; draft 5.2 m.

Type: Tanker. MMSI: 431301595.

Date/timePositionNaut miles runAvg speedWind from/ knotsBaromVisibWave heightAir tempDewpointWater temp
2015-Apr-27 04:27N 33°55' E 130°23'1313.9
2015-Apr-27 03:33N 33°43' E 130°17'9 8.1
2015-Apr-27 02:27N 33°36' E 130°23'0 0.0
2015-Apr-27 01:18N 33°36' E 130°23'0 0.0
2015-Apr-27 00:30N 33°36' E 130°23'0 0.0
2015-Apr-26 23:34N 33°36' E 130°23'1 0.7
2015-Apr-26 22:33N 33°37' E 130°23'2 1.6
2015-Apr-26 21:33N 33°37' E 130°21'0 0.0
2015-Apr-26 20:21N 33°37' E 130°21'0 0.0
2015-Apr-26 19:17N 33°37' E 130°21'0 0.0
2015-Apr-26 18:32N 33°37' E 130°21'0 0.2
2015-Apr-26 17:33N 33°38' E 130°21'9 9.4
2015-Apr-26 16:33N 33°47' E 130°18'  
2015-Apr-23 04:30N 33°52' E 130°26'1313.8
2015-Apr-23 03:33N 33°41' E 130°16'7 7.2
2015-Apr-23 02:31N 33°36' E 130°23'0 0.0
2015-Apr-23 01:31N 33°36' E 130°23'0 0.0
2015-Apr-23 00:31N 33°36' E 130°23'0 0.0
2015-Apr-22 23:31N 33°36' E 130°23'1 1.0
2015-Apr-22 22:33N 33°37' E 130°23'1 1.0
2015-Apr-22 21:33N 33°37' E 130°22'0 0.0
2015-Apr-22 20:27N 33°37' E 130°22'0 0.1
2015-Apr-22 19:33N 33°37' E 130°22'0 0.0
2015-Apr-22 18:12N 33°37' E 130°22'0 0.0
2015-Apr-22 17:24N 33°37' E 130°22'0 0.0
2015-Apr-22 16:33N 33°37' E 130°22'0 0.0
2015-Apr-22 15:27N 33°37' E 130°22'10 4.9
2015-Apr-22 13:29N 33°46' E 130°18'24211.0
2015-Apr-21 15:33N 34°36' E 135°05'1313.2
2015-Apr-21 14:33N 34°23' E 135°02'1212.3
2015-Apr-21 13:33N 34°10' E 135°04'4 4.3
2015-Apr-21 12:33N 34°07' E 135°07'0 0.0
2015-Apr-21 11:33N 34°07' E 135°07'0 0.0
2015-Apr-21 10:33N 34°07' E 135°07'0 0.3
2015-Apr-21 09:26N 34°07' E 135°08'1 1.6
2015-Apr-21 08:33N 34°08' E 135°06'1313.3
2015-Apr-21 07:33N 34°20' E 134°59'1514.4
2015-Apr-21 06:32N 34°29' E 135°13'1111.4
2015-Apr-21 05:33N 34°33' E 135°26'0 0.0
2015-Apr-21 04:33N 34°33' E 135°26'1 1.2
2015-Apr-21 03:25N 34°33' E 135°24'5 4.0
2015-Apr-21 02:17N 34°33' E 135°19'710.2
2015-Apr-21 01:34N 34°34' E 135°10'1310.8
2015-Apr-21 00:22N 34°35' E 134°54'22511.9
2015-Apr-20 05:28N 33°53' E 130°27'1213.6
2015-Apr-20 04:33N 33°43' E 130°17'9 8.5
2015-Apr-20 03:32N 33°36' E 130°23'0 0.0
2015-Apr-20 02:32N 33°36' E 130°23'0 0.0
2015-Apr-20 01:33N 33°36' E 130°23'0 0.0
2015-Apr-20 00:32N 33°36' E 130°23'0 0.0
2015-Apr-19 23:32N 33°36' E 130°23'1 0.7
2015-Apr-19 22:32N 33°37' E 130°23'2 1.9
2015-Apr-19 21:26N 33°38' E 130°21'0 0.0
2015-Apr-19 20:29N 33°38' E 130°21'0 0.1
2015-Apr-19 19:32N 33°38' E 130°21'0 0.0
2015-Apr-19 18:33N 33°38' E 130°21'0 0.0
2015-Apr-19 17:33N 33°38' E 130°21'0 0.0
2015-Apr-19 16:33N 33°38' E 130°21'0 0.0
2015-Apr-19 15:29N 33°38' E 130°21'0 0.0
2015-Apr-19 14:29N 33°38' E 130°21'0 0.0
2015-Apr-19 13:30N 33°38' E 130°21'0 0.0
2015-Apr-19 12:33N 33°38' E 130°21'0 0.0
2015-Apr-19 11:32N 33°38' E 130°21'0 0.0
2015-Apr-19 10:32N 33°38' E 130°21'0 0.0
2015-Apr-19 09:33N 33°38' E 130°21'0 0.0
2015-Apr-19 08:23N 33°38' E 130°21'0 0.0
2015-Apr-19 07:21N 33°38' E 130°21'0 0.0
2015-Apr-19 06:27N 33°38' E 130°21'0 0.0
2015-Apr-19 05:31N 33°38' E 130°21'4 4.2
2015-Apr-19 04:33N 33°40' E 130°17'1211.6
2015-Apr-19 03:33N 33°50' E 130°24'22812.0
2015-Apr-18 08:33N 34°08' E 134°58'8 1.3
2015-Apr-18 02:33N 34°07' E 135°07'1211.8
2015-Apr-18 01:32N 34°08' E 134°53'  
Track history (hours):
 
Tides and Currents Weather Stations Pressure Air Temp Water Temp Dewpoint Dewpoint Depression Visibility Wind Speed Wind Dir Waves Ship Positions

Naniwa Maru No.21

Last reported at 2015-Apr-27 04:27 UTC. Time now 2015-Apr-27 20:46 UTC.
Position N 33°55' E 130°23'.

Length 71 m; draft 5.2 m.

Type: Tanker. MMSI: 431301595.

Date/timePositionNaut miles runAvg speedWind from/ knotsBaromVisibWave heightAir tempDewpointWater temp
2015-Apr-27 04:27N 33°55' E 130°23'1313.9
2015-Apr-27 03:33N 33°43' E 130°17'9 8.1
2015-Apr-27 02:27N 33°36' E 130°23'0 0.0
2015-Apr-27 01:18N 33°36' E 130°23'0 0.0
2015-Apr-27 00:30N 33°36' E 130°23'0 0.0
2015-Apr-26 23:34N 33°36' E 130°23'1 0.7
2015-Apr-26 22:33N 33°37' E 130°23'2 1.6
2015-Apr-26 21:33N 33°37' E 130°21'0 0.0
2015-Apr-26 20:21N 33°37' E 130°21'0 0.0
2015-Apr-26 19:17N 33°37' E 130°21'0 0.0
2015-Apr-26 18:32N 33°37' E 130°21'0 0.2
2015-Apr-26 17:33N 33°38' E 130°21'9 9.4
2015-Apr-26 16:33N 33°47' E 130°18'  
2015-Apr-23 04:30N 33°52' E 130°26'1313.8
2015-Apr-23 03:33N 33°41' E 130°16'7 7.2
2015-Apr-23 02:31N 33°36' E 130°23'0 0.0
2015-Apr-23 01:31N 33°36' E 130°23'0 0.0
2015-Apr-23 00:31N 33°36' E 130°23'0 0.0
2015-Apr-22 23:31N 33°36' E 130°23'1 1.0
2015-Apr-22 22:33N 33°37' E 130°23'1 1.0
2015-Apr-22 21:33N 33°37' E 130°22'0 0.0
2015-Apr-22 20:27N 33°37' E 130°22'0 0.1
2015-Apr-22 19:33N 33°37' E 130°22'0 0.0
2015-Apr-22 18:12N 33°37' E 130°22'0 0.0
2015-Apr-22 17:24N 33°37' E 130°22'0 0.0
2015-Apr-22 16:33N 33°37' E 130°22'0 0.0
2015-Apr-22 15:27N 33°37' E 130°22'10 4.9
2015-Apr-22 13:29N 33°46' E 130°18'24211.0
2015-Apr-21 15:33N 34°36' E 135°05'1313.2
2015-Apr-21 14:33N 34°23' E 135°02'1212.3
2015-Apr-21 13:33N 34°10' E 135°04'4 4.3
2015-Apr-21 12:33N 34°07' E 135°07'0 0.0
2015-Apr-21 11:33N 34°07' E 135°07'0 0.0
2015-Apr-21 10:33N 34°07' E 135°07'0 0.3
2015-Apr-21 09:26N 34°07' E 135°08'1 1.6
2015-Apr-21 08:33N 34°08' E 135°06'1313.3
2015-Apr-21 07:33N 34°20' E 134°59'1514.4
2015-Apr-21 06:32N 34°29' E 135°13'1111.4
2015-Apr-21 05:33N 34°33' E 135°26'0 0.0
2015-Apr-21 04:33N 34°33' E 135°26'1 1.2
2015-Apr-21 03:25N 34°33' E 135°24'5 4.0
2015-Apr-21 02:17N 34°33' E 135°19'710.2
2015-Apr-21 01:34N 34°34' E 135°10'1310.8
2015-Apr-21 00:22N 34°35' E 134°54'22511.9
2015-Apr-20 05:28N 33°53' E 130°27'1213.6
2015-Apr-20 04:33N 33°43' E 130°17'9 8.5
2015-Apr-20 03:32N 33°36' E 130°23'0 0.0
2015-Apr-20 02:32N 33°36' E 130°23'0 0.0
2015-Apr-20 01:33N 33°36' E 130°23'0 0.0
2015-Apr-20 00:32N 33°36' E 130°23'0 0.0
2015-Apr-19 23:32N 33°36' E 130°23'1 0.7
2015-Apr-19 22:32N 33°37' E 130°23'2 1.9
2015-Apr-19 21:26N 33°38' E 130°21'0 0.0
2015-Apr-19 20:29N 33°38' E 130°21'0 0.1
2015-Apr-19 19:32N 33°38' E 130°21'0 0.0
2015-Apr-19 18:33N 33°38' E 130°21'0 0.0
2015-Apr-19 17:33N 33°38' E 130°21'0 0.0
2015-Apr-19 16:33N 33°38' E 130°21'0 0.0
2015-Apr-19 15:29N 33°38' E 130°21'0 0.0
2015-Apr-19 14:29N 33°38' E 130°21'0 0.0
2015-Apr-19 13:30N 33°38' E 130°21'0 0.0
2015-Apr-19 12:33N 33°38' E 130°21'0 0.0
2015-Apr-19 11:32N 33°38' E 130°21'0 0.0
2015-Apr-19 10:32N 33°38' E 130°21'0 0.0
2015-Apr-19 09:33N 33°38' E 130°21'0 0.0
2015-Apr-19 08:23N 33°38' E 130°21'0 0.0
2015-Apr-19 07:21N 33°38' E 130°21'0 0.0
2015-Apr-19 06:27N 33°38' E 130°21'0 0.0
2015-Apr-19 05:31N 33°38' E 130°21'4 4.2
2015-Apr-19 04:33N 33°40' E 130°17'1211.6
2015-Apr-19 03:33N 33°50' E 130°24'22812.0
2015-Apr-18 08:33N 34°08' E 134°58'8 1.3
2015-Apr-18 02:33N 34°07' E 135°07'1211.8
2015-Apr-18 01:32N 34°08' E 134°53'  

Dump ship's entire track history